Time;durP1;ratioP1;P1;durP2;ratioP2;P2;SDS_P1;SDS_P2;PMS_P1;PMS_P2;Temp;Humidity;BMP_temperature;BMP_pressure;BME280_temperature;BME280_humidity;BME280_pressure;Samples;Min_cycle;Max_cycle;Signal;HPM_P1;HPM_P2
2023/05/27 00:01:40;;;;;;;0.50;0.50;;;;;;;18.13;100.00;99305.31;4977501;28;20205;-63
2023/05/27 00:04:07;;;;;;;0.70;0.70;;;;;;;18.01;100.00;99302.66;4977242;28;20313;-63
2023/05/27 00:06:36;;;;;;;0.67;0.67;;;;;;;17.98;100.00;99308.03;4977106;28;20233;-63
2023/05/27 00:09:03;;;;;;;0.67;0.67;;;;;;;17.84;100.00;99294.16;4975107;28;20210;-63
2023/05/27 00:11:30;;;;;;;0.80;0.80;;;;;;;17.82;100.00;99309.00;4976979;28;20208;-62
2023/05/27 00:13:56;;;;;;;0.50;0.50;;;;;;;17.82;100.00;99306.41;4974449;28;20218;-63
2023/05/27 00:16:24;;;;;;;0.60;0.60;;;;;;;17.61;100.00;99268.78;4974396;28;20210;-63
2023/05/27 00:18:52;;;;;;;0.50;0.50;;;;;;;17.88;100.00;99309.53;4977227;28;20231;-63
2023/05/27 00:21:20;;;;;;;0.90;0.90;;;;;;;17.75;100.00;99286.94;4977094;28;20251;-63
2023/05/27 00:23:48;;;;;;;0.50;0.50;;;;;;;17.87;100.00;99305.28;4976241;28;20251;-63
2023/05/27 00:26:15;;;;;;;0.40;0.40;;;;;;;17.87;100.00;99300.91;4970311;28;20219;-63
2023/05/27 00:28:42;;;;;;;3.60;0.60;;;;;;;17.80;100.00;99295.25;4973974;28;20231;-63
2023/05/27 00:31:09;;;;;;;0.57;0.57;;;;;;;17.68;100.00;99285.66;4977070;28;20248;-63
2023/05/27 00:33:35;;;;;;;0.67;0.67;;;;;;;17.53;100.00;99281.38;4974602;28;20204;-63
2023/05/27 00:36:03;;;;;;;0.60;0.60;;;;;;;17.50;100.00;99285.91;4974569;28;20211;-63
2023/05/27 00:38:30;;;;;;;1.07;1.07;;;;;;;17.41;100.00;99284.72;4975005;28;20210;-62
2023/05/27 00:41:01;;;;;;;0.60;0.60;;;;;;;17.34;100.00;99280.81;4976768;28;20223;-63
2023/05/27 00:43:30;;;;;;;1.03;1.03;;;;;;;17.34;100.00;99275.63;4975514;28;20298;-63
2023/05/27 00:45:57;;;;;;;0.70;0.70;;;;;;;17.34;100.00;99273.03;4976139;28;20224;-63
2023/05/27 00:48:23;;;;;;;0.50;0.50;;;;;;;17.39;100.00;99271.00;4976099;28;20475;-63
2023/05/27 00:50:50;;;;;;;0.83;0.77;;;;;;;17.44;100.00;99276.75;4974166;28;20666;-63
2023/05/27 00:53:18;;;;;;;0.50;0.50;;;;;;;17.42;100.00;99267.38;4972795;28;20207;-63
2023/05/27 00:55:46;;;;;;;0.50;0.50;;;;;;;17.40;100.00;99269.22;4973075;28;20246;-63
2023/05/27 00:58:14;;;;;;;0.60;0.60;;;;;;;17.34;100.00;99270.44;4973763;28;20674;-63
2023/05/27 01:00:41;;;;;;;0.57;0.57;;;;;;;17.33;100.00;99269.59;4973858;28;20229;-64
2023/05/27 01:03:09;;;;;;;0.67;0.67;;;;;;;17.27;100.00;99261.38;4973075;28;20294;-63
2023/05/27 01:05:35;;;;;;;0.50;0.50;;;;;;;17.38;100.00;99265.91;4973226;28;20298;-63
2023/05/27 01:08:14;;;;;;;0.50;0.50;;;;;;;17.41;100.00;99266.56;4973281;28;20206;-63
2023/05/27 01:10:47;;;;;;;0.70;0.70;;;;;;;17.40;100.00;99264.88;4972484;28;20283;-63
2023/05/27 01:13:19;;;;;;;0.60;0.60;;;;;;;17.36;100.00;99262.56;4972423;28;20239;-63
2023/05/27 01:15:48;;;;;;;0.50;0.50;;;;;;;17.29;100.00;99262.09;4973555;28;20647;-63
2023/05/27 01:18:18;;;;;;;0.40;0.40;;;;;;;17.34;100.00;99265.25;4973652;28;20203;-63
2023/05/27 01:20:48;;;;;;;0.50;0.50;;;;;;;17.29;100.00;99262.94;4972899;28;20270;-62
2023/05/27 01:23:17;;;;;;;0.60;0.60;;;;;;;17.33;100.00;99268.75;4971428;28;20266;-63
2023/05/27 01:25:44;;;;;;;0.50;0.50;;;;;;;17.39;100.00;99263.22;4972356;28;20290;-63
2023/05/27 01:28:12;;;;;;;0.70;0.70;;;;;;;17.39;100.00;99258.03;4972883;28;20212;-64
2023/05/27 01:30:39;;;;;;;0.60;0.60;;;;;;;17.39;100.00;99259.78;4972519;28;20199;-64
2023/05/27 01:33:10;;;;;;;0.40;0.40;;;;;;;17.43;100.00;99256.94;4973104;28;20199;-63
2023/05/27 01:35:43;;;;;;;0.60;0.60;;;;;;;17.46;100.00;99261.94;4972476;28;20231;-63
2023/05/27 01:38:14;;;;;;;0.53;0.53;;;;;;;17.52;100.00;99260.72;4972351;28;20207;-63
2023/05/27 01:40:43;;;;;;;0.40;0.40;;;;;;;17.53;100.00;99260.63;4965186;28;20306;-64
2023/05/27 01:43:12;;;;;;;0.50;0.50;;;;;;;17.51;100.00;99246.91;4960751;28;20207;-63
2023/05/27 01:45:39;;;;;;;0.50;0.50;;;;;;;17.58;100.00;99257.78;4963527;28;20207;-63
2023/05/27 01:48:07;;;;;;;0.60;0.60;;;;;;;17.63;100.00;99254.00;4954371;28;20268;-64
2023/05/27 01:50:34;;;;;;;0.63;0.63;;;;;;;17.61;100.00;99258.44;4958598;28;20196;-63
2023/05/27 01:53:00;;;;;;;0.70;0.70;;;;;;;17.60;100.00;99259.38;4961201;28;20295;-63
2023/05/27 01:55:28;;;;;;;0.53;0.53;;;;;;;17.62;100.00;99265.28;4971312;28;20270;-64
2023/05/27 01:57:56;;;;;;;0.70;0.70;;;;;;;17.63;100.00;99251.41;4972931;28;20218;-63
2023/05/27 02:00:25;;;;;;;0.43;0.43;;;;;;;17.66;100.00;99256.41;4972653;28;20602;-64
2023/05/27 02:02:52;;;;;;;0.50;0.50;;;;;;;17.63;100.00;99251.41;4972045;28;20199;-64
2023/05/27 02:05:18;;;;;;;0.60;0.60;;;;;;;17.62;100.00;99244.56;4972048;28;20208;-64
2023/05/27 02:07:45;;;;;;;0.70;0.70;;;;;;;17.64;100.00;99255.66;4972241;28;20208;-63
2023/05/27 02:10:12;;;;;;;0.60;0.60;;;;;;;17.55;100.00;99248.44;4972488;28;20666;-63
2023/05/27 02:12:39;;;;;;;0.50;0.50;;;;;;;17.52;100.00;99243.41;4972413;28;20203;-63
2023/05/27 02:15:08;;;;;;;0.70;0.70;;;;;;;17.44;100.00;99237.03;4972825;28;20667;-63
2023/05/27 02:17:36;;;;;;;0.67;0.67;;;;;;;17.44;100.00;99247.41;4972232;28;20199;-63
2023/05/27 02:20:03;;;;;;;0.60;0.60;;;;;;;17.29;100.00;99223.22;4972310;28;20226;-64
2023/05/27 02:22:30;;;;;;;0.97;0.97;;;;;;;17.37;100.00;99239.16;4969801;28;20211;-63
2023/05/27 02:24:57;;;;;;;0.60;0.60;;;;;;;17.35;100.00;99235.81;4971898;28;20763;-63
2023/05/27 02:27:24;;;;;;;0.90;0.90;;;;;;;17.26;100.00;99226.84;4971887;28;20415;-63
2023/05/27 02:29:50;;;;;;;0.50;0.50;;;;;;;17.23;100.00;99233.97;4972095;28;20203;-63
2023/05/27 02:32:19;;;;;;;0.50;0.50;;;;;;;17.17;100.00;99234.34;4972044;28;20207;-63
2023/05/27 02:34:45;;;;;;;0.60;0.60;;;;;;;17.15;100.00;99236.19;4972419;28;20207;-63
2023/05/27 02:37:12;;;;;;;0.63;0.63;;;;;;;17.06;100.00;99231.56;4971740;28;20270;-64
2023/05/27 02:39:39;;;;;;;0.53;0.53;;;;;;;17.01;100.00;99229.22;4973448;28;20203;-64
2023/05/27 02:42:06;;;;;;;0.50;0.50;;;;;;;16.97;100.00;99229.50;4971840;28;20223;-63
2023/05/27 02:44:33;;;;;;;0.60;0.60;;;;;;;16.97;100.00;99239.84;4972209;28;20671;-63
2023/05/27 02:47:00;;;;;;;0.50;0.50;;;;;;;16.73;100.00;99198.97;4971730;28;20211;-63
2023/05/27 02:49:28;;;;;;;0.60;0.60;;;;;;;16.97;100.00;99235.50;4971801;28;20208;-64
2023/05/27 02:51:55;;;;;;;0.43;0.43;;;;;;;16.97;100.00;99237.25;4971643;28;20200;-64
2023/05/27 02:54:22;;;;;;;0.50;0.50;;;;;;;16.99;100.00;99233.69;4971671;28;20223;-64
2023/05/27 02:56:49;;;;;;;0.60;0.60;;;;;;;16.98;100.00;99238.94;4972500;28;20199;-64
2023/05/27 02:59:15;;;;;;;0.60;0.60;;;;;;;16.92;100.00;99221.19;4971535;28;20667;-63
2023/05/27 03:01:42;;;;;;;0.57;0.57;;;;;;;17.05;100.00;99237.66;4971581;28;20215;-63
2023/05/27 03:04:11;;;;;;;0.50;0.50;;;;;;;17.03;100.00;99236.91;4971666;28;20214;-64
2023/05/27 03:06:40;;;;;;;0.50;0.50;;;;;;;17.06;100.00;99234.16;4971619;28;20211;-63
2023/05/27 03:09:07;;;;;;;0.50;0.50;;;;;;;17.00;100.00;99229.31;4971617;28;20297;-63
2023/05/27 03:11:34;;;;;;;0.60;0.60;;;;;;;17.07;100.00;99246.16;4971485;28;21535;-63
2023/05/27 03:14:00;;;;;;;0.50;0.50;;;;;;;17.13;100.00;99251.81;4970578;28;20226;-64
2023/05/27 03:16:27;;;;;;;0.60;0.60;;;;;;;17.21;100.00;99256.56;4970589;28;20277;-63
2023/05/27 03:18:54;;;;;;;0.60;0.60;;;;;;;17.28;100.00;99250.91;4971577;28;20624;-63
2023/05/27 03:21:21;;;;;;;0.50;0.50;;;;;;;17.34;100.00;99260.06;4971188;28;20624;-64
2023/05/27 03:23:49;;;;;;;0.50;0.50;;;;;;;17.36;100.00;99257.38;4971364;28;20203;-63
2023/05/27 03:26:16;;;;;;;0.70;0.70;;;;;;;17.35;100.00;99256.53;4950462;29;20204;-64
2023/05/27 03:28:42;;;;;;;0.50;0.50;;;;;;;17.33;100.00;99255.81;4952022;29;20215;-64
2023/05/27 03:31:12;;;;;;;0.63;0.63;;;;;;;17.36;100.00;99258.22;4952175;29;20201;-63
2023/05/27 03:33:39;;;;;;;0.67;0.67;;;;;;;17.28;100.00;99231.94;4952158;29;20205;-64
2023/05/27 03:36:08;;;;;;;0.50;0.50;;;;;;;17.38;100.00;99261.56;4951849;29;20299;-63
2023/05/27 03:38:34;;;;;;;0.50;0.50;;;;;;;17.38;100.00;99255.56;4951618;29;20295;-64
2023/05/27 03:41:03;;;;;;;0.60;0.60;;;;;;;17.41;100.00;99260.53;4951792;29;20307;-63
2023/05/27 03:43:29;;;;;;;0.50;0.50;;;;;;;17.46;100.00;99269.69;4953570;28;20204;-64
2023/05/27 03:45:56;;;;;;;0.53;0.53;;;;;;;17.50;100.00;99268.59;4952193;29;20287;-64
2023/05/27 03:48:23;;;;;;;0.50;0.50;;;;;;;17.48;100.00;99260.06;4951898;29;20676;-64
2023/05/27 03:50:50;;;;;;;0.67;0.67;;;;;;;17.58;100.00;99273.31;4951906;29;20201;-64
2023/05/27 03:53:16;;;;;;;0.50;0.50;;;;;;;17.57;100.00;99266.50;4951608;29;20215;-64
2023/05/27 03:55:43;;;;;;;0.50;0.50;;;;;;;17.58;100.00;99271.56;4951893;29;20295;-63
2023/05/27 03:58:13;;;;;;;0.53;0.53;;;;;;;17.58;100.00;99279.34;4951322;29;20267;-63
2023/05/27 04:00:40;;;;;;;0.60;0.60;;;;;;;17.62;100.00;99264.44;4952253;29;20680;-63
2023/05/27 04:03:07;;;;;;;0.63;0.63;;;;;;;17.60;100.00;99277.53;4951571;29;20680;-63
2023/05/27 04:05:34;;;;;;;0.60;0.60;;;;;;;17.62;100.00;99278.25;4951907;29;20252;-64
2023/05/27 04:08:01;;;;;;;0.60;0.60;;;;;;;17.67;100.00;99281.38;4952147;29;20200;-64
2023/05/27 04:10:28;;;;;;;1.50;0.60;;;;;;;17.71;100.00;99287.22;4952224;29;20704;-63
2023/05/27 04:12:55;;;;;;;0.63;0.63;;;;;;;17.68;100.00;99270.09;4953547;28;20211;-63
2023/05/27 04:15:23;;;;;;;0.57;0.57;;;;;;;17.79;100.00;99278.06;4951406;29;20212;-64
2023/05/27 04:17:50;;;;;;;0.60;0.60;;;;;;;17.83;100.00;99289.88;4951344;29;20208;-64
2023/05/27 04:20:17;;;;;;;0.50;0.50;;;;;;;17.87;100.00;99289.72;4951088;29;20200;-63
2023/05/27 04:22:44;;;;;;;0.47;0.47;;;;;;;17.84;100.00;99276.00;4951778;29;20231;-63
2023/05/27 04:25:11;;;;;;;0.40;0.40;;;;;;;17.98;100.00;99292.47;4961441;28;20695;-63
2023/05/27 04:27:38;;;;;;;0.40;0.40;;;;;;;17.94;100.00;99291.00;4969543;28;20207;-64
2023/05/27 04:30:06;;;;;;;0.47;0.47;;;;;;;17.99;100.00;99289.81;4969871;28;20738;-64
2023/05/27 04:32:37;;;;;;;0.70;0.70;;;;;;;18.10;100.00;99305.50;4971953;28;20646;-64
2023/05/27 04:35:05;;;;;;;0.60;0.60;;;;;;;18.16;100.00;99307.72;4978430;28;20207;-63
2023/05/27 04:37:32;;;;;;;0.70;0.70;;;;;;;18.24;100.00;99309.84;4974479;28;20252;-64
2023/05/27 04:39:59;;;;;;;2.00;0.70;;;;;;;18.31;100.00;99311.13;4974244;28;20245;-64
2023/05/27 04:42:25;;;;;;;0.50;0.50;;;;;;;18.32;100.00;99308.44;4973924;28;20235;-64
2023/05/27 04:44:52;;;;;;;0.53;0.53;;;;;;;18.41;100.00;99301.00;4974384;28;20564;-64
2023/05/27 04:47:20;;;;;;;0.70;0.70;;;;;;;18.42;100.00;99302.69;4973932;28;20656;-64
2023/05/27 04:49:49;;;;;;;0.50;0.50;;;;;;;18.47;100.00;99300.59;4974068;28;20203;-64
2023/05/27 04:52:15;;;;;;;0.50;0.50;;;;;;;18.51;100.00;99305.56;4973452;28;20215;-64
2023/05/27 04:54:42;;;;;;;0.80;0.80;;;;;;;18.57;100.00;99305.16;4974337;28;20205;-63
2023/05/27 04:57:09;;;;;;;0.50;0.50;;;;;;;18.60;100.00;99304.94;4973779;28;20211;-64
2023/05/27 04:59:58;;;;;;;0.60;0.60;;;;;;;18.60;100.00;99312.75;4973947;28;20211;-64
2023/05/27 05:02:34;;;;;;;0.50;0.50;;;;;;;18.58;100.00;99304.19;4973757;28;20286;-63
2023/05/27 05:05:02;;;;;;;0.87;0.87;;;;;;;18.53;100.00;99303.69;4973895;28;20211;-64
2023/05/27 05:07:29;;;;;;;0.53;0.53;;;;;;;18.50;100.00;99301.28;4971419;28;20208;-63
2023/05/27 05:09:55;;;;;;;0.50;0.50;;;;;;;18.56;100.00;99300.88;4970788;28;20220;-63
2023/05/27 05:12:22;;;;;;;0.63;0.63;;;;;;;18.72;100.00;99301.56;4972831;28;20214;-64
2023/05/27 05:14:49;;;;;;;0.60;0.60;;;;;;;18.91;100.00;99302.94;4972816;28;20208;-63
2023/05/27 05:17:16;;;;;;;0.33;0.33;;;;;;;18.99;100.00;99304.13;4973041;28;20220;-64
2023/05/27 05:19:43;;;;;;;0.50;0.50;;;;;;;19.07;100.00;99308.78;4973086;28;20212;-63
2023/05/27 05:22:12;;;;;;;0.60;0.60;;;;;;;19.11;100.00;99310.25;4972936;28;20642;-64
2023/05/27 05:24:39;;;;;;;0.60;0.60;;;;;;;19.17;100.00;99307.25;4971344;28;20287;-63
2023/05/27 05:27:07;;;;;;;0.57;0.57;;;;;;;19.19;100.00;99319.19;4972892;28;20210;-64
2023/05/27 05:29:34;;;;;;;0.50;0.50;;;;;;;19.21;100.00;99316.50;4973831;28;20687;-63
2023/05/27 05:32:00;;;;;;;0.43;0.43;;;;;;;19.23;100.00;99312.03;4973188;28;20587;-64
2023/05/27 05:34:27;;;;;;;0.50;0.50;;;;;;;19.24;100.00;99305.91;4972819;28;20965;-63
2023/05/27 05:36:54;;;;;;;0.83;0.73;;;;;;;19.34;100.00;99306.97;4972603;28;20215;-63
2023/05/27 05:39:22;;;;;;;0.40;0.40;;;;;;;19.25;100.00;99286.78;4973066;28;20201;-64
2023/05/27 05:41:49;;;;;;;0.50;0.50;;;;;;;19.42;100.00;99316.88;4972134;28;20317;-63
2023/05/27 05:44:16;;;;;;;0.70;0.70;;;;;;;19.52;100.00;99318.75;4973041;28;20211;-64
2023/05/27 05:46:43;;;;;;;0.50;0.50;;;;;;;19.64;100.00;99320.53;4972249;28;20266;-64
2023/05/27 05:49:10;;;;;;;0.60;0.60;;;;;;;19.68;100.00;99319.34;4972357;28;20206;-64
2023/05/27 05:51:37;;;;;;;0.50;0.50;;;;;;;19.69;100.00;99321.03;4972435;28;20206;-64
2023/05/27 05:54:04;;;;;;;0.53;0.53;;;;;;;19.70;100.00;99325.31;4972584;28;20264;-64
2023/05/27 05:56:33;;;;;;;0.47;0.47;;;;;;;19.74;100.00;99337.13;4968770;28;20202;-65
2023/05/27 05:59:00;;;;;;;0.40;0.40;;;;;;;19.81;100.00;99335.78;4972477;28;20603;-64
2023/05/27 06:01:27;;;;;;;0.50;0.50;;;;;;;19.77;100.00;99336.94;4971728;28;20321;-64
2023/05/27 06:03:54;;;;;;;0.77;0.77;;;;;;;19.75;100.00;99344.00;4971054;28;20294;-65
2023/05/27 06:06:21;;;;;;;0.40;0.40;;;;;;;19.83;100.00;99344.34;4971370;28;20214;-64
2023/05/27 06:08:48;;;;;;;0.70;0.70;;;;;;;19.93;100.00;99350.53;4969945;28;20209;-65
2023/05/27 06:11:14;;;;;;;0.40;0.40;;;;;;;19.97;100.00;99340.75;4970538;28;20206;-65
2023/05/27 06:13:43;;;;;;;0.40;0.40;;;;;;;20.02;100.00;99348.25;4973334;28;20698;-64
2023/05/27 06:16:09;;;;;;;0.63;0.63;;;;;;;20.00;100.00;99347.53;4971907;28;20264;-65
2023/05/27 06:18:36;;;;;;;0.47;0.47;;;;;;;20.05;100.00;99348.03;4971524;28;20202;-64
2023/05/27 06:21:03;;;;;;;0.90;0.90;;;;;;;20.13;100.00;99356.16;4973536;28;20623;-63
2023/05/27 06:23:30;;;;;;;0.50;0.50;;;;;;;20.20;100.00;99360.81;4971452;28;20229;-63
2023/05/27 06:25:56;;;;;;;1.17;1.17;;;;;;;20.20;100.00;99357.38;4971405;28;20249;-63
2023/05/27 06:28:23;;;;;;;0.50;0.50;;;;;;;20.35;100.00;99359.78;4973002;28;20214;-63
2023/05/27 06:30:51;;;;;;;0.40;0.40;;;;;;;20.37;100.00;99357.06;4972766;28;20206;-64
2023/05/27 06:33:18;;;;;;;0.67;0.67;;;;;;;20.40;100.00;99364.66;4972691;28;20206;-63
2023/05/27 06:35:45;;;;;;;0.40;0.40;;;;;;;20.48;100.00;99367.56;4971246;28;20218;-64
2023/05/27 06:38:12;;;;;;;0.40;0.40;;;;;;;20.52;100.00;99363.78;4969463;28;20213;-63
2023/05/27 06:40:38;;;;;;;0.40;0.40;;;;;;;20.63;100.00;99366.44;4971098;28;20211;-63
2023/05/27 06:43:05;;;;;;;0.47;0.47;;;;;;;20.72;100.00;99370.16;4969890;28;20250;-64
2023/05/27 06:45:32;;;;;;;0.50;0.50;;;;;;;20.78;100.00;99369.72;4968470;28;20257;-64
2023/05/27 06:48:00;;;;;;;0.43;0.43;;;;;;;20.84;100.00;99354.47;4968425;28;20441;-61
2023/05/27 06:50:27;;;;;;;0.50;0.50;;;;;;;21.01;98.74;99370.63;4972954;28;20678;-61
2023/05/27 06:52:54;;;;;;;0.60;0.60;;;;;;;21.05;99.11;99372.09;4972234;28;20211;-62
2023/05/27 06:55:20;;;;;;;0.40;0.40;;;;;;;21.08;98.60;99375.31;4971761;28;20198;-62
2023/05/27 06:57:47;;;;;;;0.40;0.40;;;;;;;21.15;99.73;99375.72;4972470;28;20583;-62
2023/05/27 07:00:15;;;;;;;0.40;0.40;;;;;;;21.15;100.00;99373.09;4971920;28;20207;-62
2023/05/27 07:02:41;;;;;;;0.50;0.50;;;;;;;21.21;99.62;99373.50;4972058;28;20219;-61
2023/05/27 07:05:10;;;;;;;0.40;0.40;;;;;;;21.26;99.06;99373.16;4972383;28;20211;-61
2023/05/27 07:07:37;;;;;;;0.50;0.50;;;;;;;21.35;97.15;99372.47;4972188;28;20214;-61
2023/05/27 07:10:04;;;;;;;0.47;0.47;;;;;;;21.35;96.73;99365.47;4972535;28;20209;-63
2023/05/27 07:12:31;;;;;;;0.50;0.50;;;;;;;21.41;97.10;99374.63;4972217;28;20200;-63
2023/05/27 07:14:58;;;;;;;0.20;0.20;;;;;;;21.48;96.04;99375.00;4972301;28;20207;-62
2023/05/27 07:17:24;;;;;;;0.40;0.40;;;;;;;21.45;96.71;99360.41;4971671;28;20207;-62
2023/05/27 07:19:51;;;;;;;0.60;0.60;;;;;;;21.48;96.01;99369.78;4971924;28;20214;-62
2023/05/27 07:22:19;;;;;;;0.43;0.43;;;;;;;21.42;96.90;99371.06;4971617;28;20615;-62
2023/05/27 07:24:46;;;;;;;0.40;0.40;;;;;;;21.43;98.06;99376.16;4971479;28;20247;-62
2023/05/27 07:27:13;;;;;;;0.47;0.47;;;;;;;21.41;96.44;99370.22;4971944;28;20199;-62
2023/05/27 07:29:41;;;;;;;0.70;0.70;;;;;;;21.44;97.50;99369.16;4971900;28;20204;-62
2023/05/27 07:32:08;;;;;;;0.70;0.70;;;;;;;21.32;94.82;99344.00;4971883;28;20210;-62
2023/05/27 07:34:35;;;;;;;0.50;0.50;;;;;;;21.57;94.18;99376.91;4971690;28;20207;-62
2023/05/27 07:37:02;;;;;;;0.40;0.40;;;;;;;21.59;92.66;99373.22;4971974;28;20211;-62
2023/05/27 07:39:30;;;;;;;0.60;0.60;;;;;;;21.61;93.59;99373.13;4971991;28;20206;-62
2023/05/27 07:41:57;;;;;;;0.47;0.47;;;;;;;21.66;92.89;99373.59;4971327;28;20301;-62
2023/05/27 07:44:23;;;;;;;0.30;0.30;;;;;;;21.67;93.65;99370.88;4969854;28;20274;-62
2023/05/27 07:46:50;;;;;;;0.50;0.50;;;;;;;21.73;93.41;99373.00;4971691;28;20203;-61
2023/05/27 07:49:17;;;;;;;0.40;0.40;;;;;;;21.68;93.54;99372.50;4971746;28;20209;-62
2023/05/27 07:51:44;;;;;;;0.33;0.33;;;;;;;21.79;93.78;99377.75;4971712;28;20649;-62
2023/05/27 07:54:10;;;;;;;0.43;0.43;;;;;;;21.84;95.12;99366.97;4971674;28;20540;-61
2023/05/27 07:56:39;;;;;;;0.60;0.60;;;;;;;21.94;96.52;99371.38;4972404;28;20675;-62
2023/05/27 07:59:05;;;;;;;0.40;0.40;;;;;;;22.01;94.60;99373.50;4971211;28;20211;-62
2023/05/27 08:01:32;;;;;;;0.50;0.50;;;;;;;22.04;92.91;99373.28;4971627;28;20697;-62
2023/05/27 08:03:59;;;;;;;0.37;0.37;;;;;;;22.01;91.95;99363.91;4975648;28;20214;-62
2023/05/27 08:06:26;;;;;;;0.63;0.63;;;;;;;22.10;90.10;99372.84;4976117;28;20207;-61
2023/05/27 08:08:53;;;;;;;0.80;0.80;;;;;;;22.10;90.10;99373.63;4975203;28;20203;-62
2023/05/27 08:11:20;;;;;;;0.50;0.50;;;;;;;22.16;90.54;99378.41;4974145;28;20210;-62
2023/05/27 08:13:48;;;;;;;0.40;0.40;;;;;;;22.22;88.48;99377.09;4975224;28;20226;-62
2023/05/27 08:16:20;;;;;;;0.40;0.40;;;;;;;22.25;89.22;99392.50;4975049;28;20282;-62
2023/05/27 08:18:46;;;;;;;0.40;0.40;;;;;;;22.24;91.16;99367.34;4975500;28;20689;-62
2023/05/27 08:21:13;;;;;;;0.40;0.40;;;;;;;22.33;92.00;99379.66;4974627;28;20211;-63
2023/05/27 08:23:40;;;;;;;0.30;0.30;;;;;;;22.33;92.44;99377.91;4974300;28;20215;-62
2023/05/27 08:26:07;;;;;;;0.40;0.40;;;;;;;22.34;93.26;99382.19;4974607;28;20306;-61
2023/05/27 08:28:36;;;;;;;0.30;0.30;;;;;;;22.39;93.09;99384.44;4973132;28;20295;-63
2023/05/27 08:31:05;;;;;;;0.47;0.47;;;;;;;22.42;91.57;99385.00;4975141;28;20619;-62
2023/05/27 08:33:31;;;;;;;0.33;0.33;;;;;;;22.48;90.68;99391.53;4973238;28;20258;-61
2023/05/27 08:35:58;;;;;;;0.40;0.40;;;;;;;22.57;91.68;99388.19;4972666;28;20203;-62
2023/05/27 08:38:25;;;;;;;0.40;0.40;;;;;;;22.55;89.34;99400.56;4970722;28;20215;-63
2023/05/27 08:40:54;;;;;;;0.30;0.30;;;;;;;22.61;89.75;99394.84;4972095;28;20238;-63
2023/05/27 08:43:22;;;;;;;0.47;0.47;;;;;;;22.62;86.58;99403.53;4973646;28;20230;-63
2023/05/27 08:45:49;;;;;;;1.20;0.70;;;;;;;22.62;87.71;99399.09;4973017;28;20207;-64
2023/05/27 08:48:17;;;;;;;0.30;0.30;;;;;;;22.65;86.31;99398.84;4971694;28;20294;-62
2023/05/27 08:50:45;;;;;;;0.40;0.40;;;;;;;22.71;86.63;99395.81;4971144;28;20207;-62
2023/05/27 08:53:12;;;;;;;0.47;0.47;;;;;;;22.67;86.33;99398.78;4973669;28;20290;-61
2023/05/27 08:55:42;;;;;;;0.47;0.47;;;;;;;22.71;87.12;99400.19;4972696;28;20938;-62
2023/05/27 08:58:12;;;;;;;0.40;0.40;;;;;;;22.70;86.30;99396.75;4961968;28;20242;-62
2023/05/27 09:00:38;;;;;;;0.67;0.67;;;;;;;22.70;87.33;99399.38;4974434;28;20207;-62
2023/05/27 09:03:05;;;;;;;0.50;0.50;;;;;;;22.66;88.93;99394.50;4974296;28;20639;-62
2023/05/27 09:05:34;;;;;;;0.40;0.40;;;;;;;22.64;88.52;99397.22;4973454;28;20203;-62
2023/05/27 09:08:00;;;;;;;0.43;0.43;;;;;;;22.53;87.69;99397.22;4972526;28;20241;-62
2023/05/27 09:10:36;;;;;;;0.40;0.40;;;;;;;22.60;87.38;99392.34;4972919;28;20266;-61
2023/05/27 09:13:03;;;;;;;0.40;0.40;;;;;;;22.63;89.59;99398.16;4973180;28;20199;-62
2023/05/27 09:15:31;;;;;;;0.33;0.33;;;;;;;22.65;89.48;99391.00;4972726;28;20643;-61
2023/05/27 09:17:58;;;;;;;0.30;0.30;;;;;;;22.68;90.70;99397.84;4974024;28;20211;-62
2023/05/27 09:20:26;;;;;;;0.50;0.50;;;;;;;22.66;87.35;99402.34;4974000;28;20196;-61
2023/05/27 09:22:59;;;;;;;0.30;0.30;;;;;;;22.63;87.31;99392.94;4973945;28;20302;-62
2023/05/27 09:25:27;;;;;;;0.50;0.50;;;;;;;22.44;89.09;99367.44;4974058;28;20228;-62
2023/05/27 09:27:54;;;;;;;0.60;0.60;;;;;;;22.54;88.84;99385.00;4974027;28;20683;-61
2023/05/27 09:30:22;;;;;;;0.40;0.40;;;;;;;22.55;89.70;99374.44;4974565;28;20199;-62
2023/05/27 09:32:49;;;;;;;0.40;0.40;;;;;;;22.65;89.35;99391.00;4973896;28;20199;-62
2023/05/27 09:35:17;;;;;;;0.30;0.30;;;;;;;22.66;88.69;99387.50;4974041;28;20703;-61
2023/05/27 09:37:45;;;;;;;0.60;0.60;;;;;;;22.66;88.74;99384.88;4974386;28;20195;-62
2023/05/27 09:40:15;;;;;;;0.40;0.40;;;;;;;22.76;90.36;99377.97;4974069;28;20206;-62
2023/05/27 09:42:46;;;;;;;0.50;0.50;;;;;;;22.69;87.30;99382.00;4973732;28;20254;-61
2023/05/27 09:45:14;;;;;;;0.60;0.60;;;;;;;22.67;87.75;99378.69;4974079;28;20606;-62
2023/05/27 09:47:43;;;;;;;0.47;0.47;;;;;;;22.73;88.71;99377.38;4973735;28;20219;-62
2023/05/27 09:50:11;;;;;;;0.57;0.57;;;;;;;22.77;90.15;99371.78;4973702;28;20200;-62
2023/05/27 09:52:39;;;;;;;0.40;0.40;;;;;;;22.69;88.95;99345.44;4974138;28;20203;-62
2023/05/27 09:55:08;;;;;;;0.30;0.30;;;;;;;22.92;88.00;99373.16;4973302;28;20250;-61
2023/05/27 09:57:36;;;;;;;0.60;0.60;;;;;;;22.93;86.74;99374.81;4974024;28;20206;-62
2023/05/27 10:00:10;;;;;;;0.40;0.40;;;;;;;22.89;87.22;99357.72;4973352;28;20199;-62
2023/05/27 10:02:38;;;;;;;0.30;0.30;;;;;;;22.90;87.00;99363.78;4971690;28;20716;-62
2023/05/27 10:05:07;;;;;;;0.30;0.30;;;;;;;22.92;85.44;99377.53;4972741;28;20219;-61
2023/05/27 10:07:38;;;;;;;0.43;0.43;;;;;;;22.88;87.17;99370.91;4970807;28;20289;-62
2023/05/27 10:10:08;;;;;;;0.53;0.53;;;;;;;22.88;84.85;99379.56;4971788;28;20290;-62
2023/05/27 10:12:37;;;;;;;0.30;0.30;;;;;;;22.81;86.21;99373.19;4973257;28;20200;-62
2023/05/27 10:15:05;;;;;;;0.30;0.30;;;;;;;22.79;86.25;99367.25;4973292;28;20634;-62
2023/05/27 10:17:42;;;;;;;0.30;0.30;;;;;;;22.75;87.16;99355.38;4973292;28;20211;-61
2023/05/27 10:20:10;;;;;;;0.30;0.30;;;;;;;22.93;87.82;99374.00;4970654;28;20766;-62
2023/05/27 10:22:40;;;;;;;0.50;0.50;;;;;;;23.00;87.16;99369.94;4972966;28;20215;-62
2023/05/27 10:25:12;;;;;;;0.60;0.60;;;;;;;22.94;86.36;99366.00;4973006;28;20288;-62
2023/05/27 10:27:45;;;;;;;0.40;0.40;;;;;;;22.96;86.67;99364.13;4972963;28;20298;-62
2023/05/27 10:30:13;;;;;;;0.33;0.33;;;;;;;22.95;82.72;99367.69;4972823;28;20679;-62
2023/05/27 10:32:49;;;;;;;0.40;0.40;;;;;;;23.02;84.96;99360.16;4973547;28;20199;-61
2023/05/27 10:35:16;;;;;;;0.30;0.30;;;;;;;23.04;83.65;99354.81;4973456;28;20730;-61
2023/05/27 10:37:43;;;;;;;0.30;0.30;;;;;;;22.96;83.40;99352.81;4970520;28;20207;-62
2023/05/27 10:40:11;;;;;;;0.50;0.50;;;;;;;23.12;83.88;99347.16;4973151;28;20207;-61
2023/05/27 10:42:38;;;;;;;0.50;0.50;;;;;;;23.21;83.34;99351.63;4972139;28;20710;-62
2023/05/27 10:45:08;;;;;;;0.60;0.60;;;;;;;23.34;84.69;99347.03;4972953;28;20258;-62
2023/05/27 10:47:38;;;;;;;0.40;0.40;;;;;;;23.35;85.14;99349.53;4972248;28;20227;-62
2023/05/27 10:50:13;;;;;;;0.20;0.20;;;;;;;23.47;83.50;99343.31;4972400;28;20211;-61
2023/05/27 10:52:41;;;;;;;0.53;0.53;;;;;;;23.56;85.34;99336.44;4972641;28;20294;-62
2023/05/27 10:55:09;;;;;;;0.50;0.50;;;;;;;23.63;84.30;99328.91;4972229;28;20279;-61
2023/05/27 10:57:36;;;;;;;0.50;0.50;;;;;;;23.99;83.11;99329.22;4972166;28;20206;-62
2023/05/27 11:00:09;;;;;;;0.30;0.30;;;;;;;24.13;81.36;99330.69;4972288;28;20294;-62
2023/05/27 11:02:38;;;;;;;0.40;0.40;;;;;;;24.25;79.13;99334.00;4971448;28;20217;-62
2023/05/27 11:05:14;;;;;;;0.37;0.37;;;;;;;24.30;78.47;99337.88;4971992;28;20611;-62
2023/05/27 11:07:42;;;;;;;0.40;0.40;;;;;;;24.42;75.70;99334.19;4971645;28;20551;-62
2023/05/27 11:10:10;;;;;;;0.40;0.40;;;;;;;24.56;76.30;99332.97;4972353;28;20635;-61
2023/05/27 11:12:37;;;;;;;0.30;0.30;;;;;;;24.73;76.32;99324.44;4972760;28;20199;-61
2023/05/27 11:15:05;;;;;;;0.30;0.30;;;;;;;25.05;74.26;99335.50;4972159;28;20630;-62
2023/05/27 11:17:33;;;;;;;0.40;0.40;;;;;;;25.33;73.43;99338.25;4970750;28;20207;-62
2023/05/27 11:20:05;;;;;;;0.50;0.50;;;;;;;25.57;72.07;99328.09;4971901;28;20195;-61
2023/05/27 11:22:32;;;;;;;0.30;0.30;;;;;;;25.78;72.07;99322.66;4971674;28;20214;-61
2023/05/27 11:25:00;;;;;;;0.30;0.30;;;;;;;25.97;71.17;99307.66;4972392;28;20234;-61
2023/05/27 11:27:35;;;;;;;0.30;0.30;;;;;;;26.02;65.83;99309.81;4972287;28;20192;-62
2023/05/27 11:30:09;;;;;;;0.30;0.30;;;;;;;25.71;68.74;99309.28;4972092;28;20298;-61
2023/05/27 11:32:36;;;;;;;0.30;0.30;;;;;;;25.87;69.96;99301.59;4971594;28;20582;-62